Aérodrome :
LOGIN :

S'inscrire | Disclaimer

   EN    FR    IT 

 










Légende :    VFR   VFR Marginal   IFR   IFR Intensif   IFR Très Intensif
Visi : 
Plafond : 
>= 8 km
>= 3000ft
5 à 8 km
1000 à 3000 ft
1500m à 5 km
500 à 1000 ft
800 à 1500m
200 à 500 ft
< 800m
< 200 ft
Symboles :   Orages  Brouillard  Fortes neiges  Fortes précipitations  Vent > 20 kt
SIGMETs :   Divers  Orages  Givrage  Turbulence  Onde Orograph.  Cendres Volcan.







- Altitude de l'aérodrome : 479 ft
- Code IATA : DOL
- Voir les cartes d'approche


LFRG - Deauville

DERNIER METAR :
  • 202100Z AUTO 31017KT 9999 FEW015 SCT021 BKN030 09/08 Q1006 TEMPO 4000 RADZ BKN012

METARs EXPIRÉS :
  • 202030Z AUTO 31017KT 9999 FEW017 BKN033 BKN042 09/08 Q1006 TEMPO 4000 RADZ BKN012
  • 202000Z AUTO 31015KT 9999 FEW010 OVC035 09/08 Q1005 TEMPO 4000 RADZ BKN012
  • 201930Z AUTO 30017G29KT 9999 BKN006 BKN010 OVC025 09/08 Q1005 TEMPO 4000 RADZ BKN012 BECMG 30010KT
  • 201900Z AUTO 30017KT 9999 BKN004/// BKN032/// BKN043/// ///TCU 09/09 Q1004 TEMPO 4000 RADZ BKN012
  • 201830Z AUTO 30018G30KT 270V330 9999 OVC003 09/09 Q1003 TEMPO 4000 RADZ BKN012 BECMG 30010KT
  • 201800Z AUTO 30019G30KT 2700 RA BR BKN003/// OVC028/// ///TCU 09/09 Q1003 TEMPO 4000 RADZ BKN012 BECMG 30010KT

TAF AMD TAF LFRG
Valide du 20 à 17h jusqu'au 21 à 00h UTC


201722Z 2017/2024 28020G30KT 9999 BKN015
TEMPO 2017/2019 2000 RADZ BR VV///
TEMPO 2019/2024 4000 RADZ BKN012
BECMG 2019/2021 30010KT
ATIS : +33 2 31 65 65 36
Pas de NOTAMs connus pour ce terrain.
2 SIGMETs publiés pour la FIR Paris (LFFF) :
 
Turbulence forte
LFFF SIGMET 8 VALID 202100/210100 LFPW
LFFF PARIS FIR/UIR SEV TURB FCST NE OF LINE N5100 E00145 - N4815 E00530 FL180/290 MOV NE 20KT NC=
Turbulence forte
LFFF SIGMET 7 VALID 201700/202100 LFPW
LFFF PARIS FIR/UIR SEV TURB FCST NE OF LINE N4815 E00515 - N5045 E00100 FL180/310 MOV NE 15KT NC=



MET'MAP, la Météo Aéronautique d'un coup d'oeil ! - Copyright ORBIFLY Décembre 2007 - Disclaimer

ORBIFLY MET'MAP TEAM :

Programmation & Développement : Alexandra Zaïnal
Conception & Développement : Baudouin d'Aumeries
Co-Programmation & Développement : Marc-Olivier Méhu
Soutien technique & logistique : Manuel Goepfert

Contact : metmap@orbifly.com




SOURCES & CREDITS :

   NOAA